Yuho Maru No.3 — JD2491 — position and weather

sailwx.info

Track history (hours):
 
Tides and Currents Weather Stations Pressure Air Temp Water Temp Dewpoint Dewpoint Depression Visibility Wind Speed Wind Dir Waves Ship Positions

Yuho Maru No.3

Last reported at 2014-Dec-15 07:24 UTC. Time now 2014-Dec-20 04:24 UTC.
Position N 35°15' E 139°46'.

Length 65 m; draft 4.2 m.

Type: Tanker. MMSI: 431000336.

Date/timePositionNaut miles runAvg speedWind from/ knotsBaromVisibWave heightAir tempDewpointWater temp
2014-Dec-15 07:24N 35°15' E 139°46'8 9.8
2014-Dec-15 06:34N 35°22' E 139°40'6 6.2
2014-Dec-15 05:34N 35°28' E 139°42'4 3.9
2014-Dec-15 04:33N 35°31' E 139°45'0 0.0
2014-Dec-15 03:34N 35°31' E 139°45'0 0.0
2014-Dec-15 02:34N 35°31' E 139°45'0 0.0
2014-Dec-15 01:33N 35°31' E 139°45'0 0.0
2014-Dec-15 00:33N 35°31' E 139°45'0 0.0
2014-Dec-14 23:33N 35°31' E 139°45'2 1.9
2014-Dec-14 22:33N 35°30' E 139°47'  
2014-Dec-12 04:33N 35°10' E 139°44'1110.9
2014-Dec-12 03:33N 35°21' E 139°42'1110.6
2014-Dec-12 02:34N 35°31' E 139°46'1 0.5
2014-Dec-12 01:33N 35°31' E 139°46'0 0.0
2014-Dec-12 00:34N 35°31' E 139°46'0 0.0
2014-Dec-11 23:34N 35°31' E 139°46'0 0.0
2014-Dec-11 22:33N 35°31' E 139°46'1 0.9
2014-Dec-11 21:33N 35°31' E 139°47'2 0.1
2014-Dec-11 00:32N 35°28' E 139°47'2 0.3
2014-Dec-10 18:20N 35°29' E 139°49'0 0.0
2014-Dec-10 17:33N 35°29' E 139°49'0 0.0
2014-Dec-10 16:33N 35°29' E 139°49'0 0.0
2014-Dec-10 15:34N 35°29' E 139°49'0 0.0
2014-Dec-10 14:33N 35°29' E 139°49'0 0.0
2014-Dec-10 13:33N 35°29' E 139°49'0 0.1
2014-Dec-10 12:33N 35°29' E 139°49'0 0.0
2014-Dec-10 11:30N 35°29' E 139°49'0 0.1
2014-Dec-10 10:33N 35°29' E 139°49'0 0.0
2014-Dec-10 09:33N 35°29' E 139°49'0 0.0
2014-Dec-10 08:33N 35°29' E 139°49'0 0.0
2014-Dec-10 07:31N 35°29' E 139°49'0 0.0
2014-Dec-10 06:32N 35°29' E 139°49'0 0.0
2014-Dec-10 05:31N 35°29' E 139°49'0 0.0
2014-Dec-10 04:18N 35°29' E 139°49'0 0.0
2014-Dec-10 03:33N 35°29' E 139°49'0 0.0
2014-Dec-10 02:33N 35°29' E 139°49'0 0.0
2014-Dec-10 01:33N 35°29' E 139°49'0 0.0
2014-Dec-10 00:34N 35°29' E 139°49'0 0.0
2014-Dec-09 23:33N 35°29' E 139°49'0 0.0
2014-Dec-09 22:34N 35°29' E 139°49'0 0.0
2014-Dec-09 21:34N 35°29' E 139°49'0 0.0
2014-Dec-09 20:33N 35°29' E 139°49'0 0.0
2014-Dec-09 19:34N 35°29' E 139°49'0 0.0
2014-Dec-09 18:33N 35°29' E 139°49'0 0.0
2014-Dec-09 17:34N 35°29' E 139°49'0 0.0
2014-Dec-09 16:33N 35°29' E 139°49'0 0.0
2014-Dec-09 15:34N 35°29' E 139°49'0 0.0
2014-Dec-09 14:33N 35°29' E 139°49'0 0.0
2014-Dec-09 13:33N 35°29' E 139°49'0 0.0
2014-Dec-09 12:34N 35°29' E 139°49'0 0.0
2014-Dec-09 11:34N 35°29' E 139°49'0 0.0
2014-Dec-09 10:33N 35°29' E 139°49'0 0.0
2014-Dec-09 09:33N 35°29' E 139°49'0 0.0
2014-Dec-09 08:34N 35°29' E 139°49'0 0.0
2014-Dec-09 07:34N 35°29' E 139°49'0 0.0
2014-Dec-09 06:33N 35°29' E 139°49'0 0.1
2014-Dec-09 05:33N 35°29' E 139°49'0 0.0
2014-Dec-09 04:33N 35°29' E 139°49'0 0.0
2014-Dec-09 03:33N 35°29' E 139°49'0 0.0
2014-Dec-09 02:33N 35°29' E 139°49'0 0.0
2014-Dec-09 01:33N 35°29' E 139°49'0 0.0
2014-Dec-09 00:34N 35°29' E 139°49'6 1.1
2014-Dec-08 19:13N 35°29' E 139°56'0 0.0
2014-Dec-08 18:30N 35°29' E 139°56'0 0.0
2014-Dec-08 17:18N 35°29' E 139°56'9 0.2
2014-Dec-06 18:05N 35°34' E 140°04'5 0.3
2014-Dec-05 23:19N 35°30' E 140°01'  
Track history (hours):
 
Tides and Currents Weather Stations Pressure Air Temp Water Temp Dewpoint Dewpoint Depression Visibility Wind Speed Wind Dir Waves Ship Positions

Yuho Maru No.3

Last reported at 2014-Dec-15 07:24 UTC. Time now 2014-Dec-20 04:24 UTC.
Position N 35°15' E 139°46'.

Length 65 m; draft 4.2 m.

Type: Tanker. MMSI: 431000336.

Date/timePositionNaut miles runAvg speedWind from/ knotsBaromVisibWave heightAir tempDewpointWater temp
2014-Dec-15 07:24N 35°15' E 139°46'8 9.8
2014-Dec-15 06:34N 35°22' E 139°40'6 6.2
2014-Dec-15 05:34N 35°28' E 139°42'4 3.9
2014-Dec-15 04:33N 35°31' E 139°45'0 0.0
2014-Dec-15 03:34N 35°31' E 139°45'0 0.0
2014-Dec-15 02:34N 35°31' E 139°45'0 0.0
2014-Dec-15 01:33N 35°31' E 139°45'0 0.0
2014-Dec-15 00:33N 35°31' E 139°45'0 0.0
2014-Dec-14 23:33N 35°31' E 139°45'2 1.9
2014-Dec-14 22:33N 35°30' E 139°47'  
2014-Dec-12 04:33N 35°10' E 139°44'1110.9
2014-Dec-12 03:33N 35°21' E 139°42'1110.6
2014-Dec-12 02:34N 35°31' E 139°46'1 0.5
2014-Dec-12 01:33N 35°31' E 139°46'0 0.0
2014-Dec-12 00:34N 35°31' E 139°46'0 0.0
2014-Dec-11 23:34N 35°31' E 139°46'0 0.0
2014-Dec-11 22:33N 35°31' E 139°46'1 0.9
2014-Dec-11 21:33N 35°31' E 139°47'2 0.1
2014-Dec-11 00:32N 35°28' E 139°47'2 0.3
2014-Dec-10 18:20N 35°29' E 139°49'0 0.0
2014-Dec-10 17:33N 35°29' E 139°49'0 0.0
2014-Dec-10 16:33N 35°29' E 139°49'0 0.0
2014-Dec-10 15:34N 35°29' E 139°49'0 0.0
2014-Dec-10 14:33N 35°29' E 139°49'0 0.0
2014-Dec-10 13:33N 35°29' E 139°49'0 0.1
2014-Dec-10 12:33N 35°29' E 139°49'0 0.0
2014-Dec-10 11:30N 35°29' E 139°49'0 0.1
2014-Dec-10 10:33N 35°29' E 139°49'0 0.0
2014-Dec-10 09:33N 35°29' E 139°49'0 0.0
2014-Dec-10 08:33N 35°29' E 139°49'0 0.0
2014-Dec-10 07:31N 35°29' E 139°49'0 0.0
2014-Dec-10 06:32N 35°29' E 139°49'0 0.0
2014-Dec-10 05:31N 35°29' E 139°49'0 0.0
2014-Dec-10 04:18N 35°29' E 139°49'0 0.0
2014-Dec-10 03:33N 35°29' E 139°49'0 0.0
2014-Dec-10 02:33N 35°29' E 139°49'0 0.0
2014-Dec-10 01:33N 35°29' E 139°49'0 0.0
2014-Dec-10 00:34N 35°29' E 139°49'0 0.0
2014-Dec-09 23:33N 35°29' E 139°49'0 0.0
2014-Dec-09 22:34N 35°29' E 139°49'0 0.0
2014-Dec-09 21:34N 35°29' E 139°49'0 0.0
2014-Dec-09 20:33N 35°29' E 139°49'0 0.0
2014-Dec-09 19:34N 35°29' E 139°49'0 0.0
2014-Dec-09 18:33N 35°29' E 139°49'0 0.0
2014-Dec-09 17:34N 35°29' E 139°49'0 0.0
2014-Dec-09 16:33N 35°29' E 139°49'0 0.0
2014-Dec-09 15:34N 35°29' E 139°49'0 0.0
2014-Dec-09 14:33N 35°29' E 139°49'0 0.0
2014-Dec-09 13:33N 35°29' E 139°49'0 0.0
2014-Dec-09 12:34N 35°29' E 139°49'0 0.0
2014-Dec-09 11:34N 35°29' E 139°49'0 0.0
2014-Dec-09 10:33N 35°29' E 139°49'0 0.0
2014-Dec-09 09:33N 35°29' E 139°49'0 0.0
2014-Dec-09 08:34N 35°29' E 139°49'0 0.0
2014-Dec-09 07:34N 35°29' E 139°49'0 0.0
2014-Dec-09 06:33N 35°29' E 139°49'0 0.1
2014-Dec-09 05:33N 35°29' E 139°49'0 0.0
2014-Dec-09 04:33N 35°29' E 139°49'0 0.0
2014-Dec-09 03:33N 35°29' E 139°49'0 0.0
2014-Dec-09 02:33N 35°29' E 139°49'0 0.0
2014-Dec-09 01:33N 35°29' E 139°49'0 0.0
2014-Dec-09 00:34N 35°29' E 139°49'6 1.1
2014-Dec-08 19:13N 35°29' E 139°56'0 0.0
2014-Dec-08 18:30N 35°29' E 139°56'0 0.0
2014-Dec-08 17:18N 35°29' E 139°56'9 0.2
2014-Dec-06 18:05N 35°34' E 140°04'5 0.3
2014-Dec-05 23:19N 35°30' E 140°01'  

Dump ship's entire track history